St Helier, United Kingdom
Current Conditions -  °F | °C
As of 8:50 PM on Wednesday 22 Oct 2014 (Local Time) from EGJJ Reporting Station
Broken Clouds Broken Clouds  
Wind Chill: 55°   Ceiling: 2800
Heat Index: 55°   Visibility: 6mi
Dew Point: 46°   Wind: 17mph
Humidity: 72%   Direction: 290°WNW
Pressure: 30.33"   Gusts: NA
Location:  49.18°N, 2.1°W
Report Text: EGJJ 221950Z 29015KT 9999 BKN028 13/08 Q1027 NOSIG
Loading
Personal Weather Stations






























Interactive Weather Map
Tropical Storm Tracking
New forecast layout! Learn more

10-Day Weather Forecast

Advertisements
Track Severe Weather on mobile